Terminal Aerodrome Forecast
Issued by NWS Sterling, VA

Home | Current Version | Previous Version | Text Only | Print | Product List | Glossary On
Versions: 1 2 3 4 5 6 7 8 9 10 11 12 13 14 15 16 17 18 19 20 21 22 23
000
FTUS41 KLWX 010531
TAFIAD
TAF
KIAD 010531Z 0106/0212 VRB03KT P6SM SCT100
     FM010800 00000KT 5SM BR FEW100
     FM011100 00000KT P6SM BKN090
     FM011300 VRB03KT P6SM SCT150
     FM021100 31004KT 6SM BR BKN070=

USA.gov is the U.S. government's official web portal to all federal, state and local government web resources and services.